This is the latest recevied weather packets stored in our database for station/object VA3ECP. If no packets are shown the sender has not sent any weather packets the latest 10 day(s).
| Time | Temp. | Humidity | Pressure | Rain* | Wind** | Luminosity | Snow |
|---|---|---|---|---|---|---|---|
| 1777525220 | 7.78° C | 97% | 1005.9 hPa | 1.78 mm | - | - | - |
| 1777524026 | 7.78° C | 97% | 1006.1 hPa | 1.52 mm | - | - | - |
| 1777518632 | 8.33° C | 97% | 1007 hPa | 2.03 mm | - | - | - |
| 1777518024 | 8.33° C | 97% | 1007.1 hPa | 2.03 mm | - | - | - |
| 1777513823 | 9.44° C | 97% | 1008 hPa | 3.81 mm | - | - | - |
| 1777504830 | 10.56° C | 93% | 1008.7 hPa | 1.52 mm | - | - | - |
| 1777504221 | 10.56° C | 93% | 1008.5 hPa | 1.02 mm | - | - | - |
| 1777500021 | 11.67° C | 89% | 1008.7 hPa | 0.25 mm | - | - | - |
| 1777492824 | 13.33° C | 77% | 1009.5 hPa | 0 mm | - | - | - |
| 1777489827 | 13.89° C | 75% | 1010 hPa | 0 mm | - | - | - |
| 1777482620 | 15° C | 67% | 1011 hPa | 0 mm | - | - | - |
| 1777462226 | 12.22° C | 84% | 1013 hPa | 0 mm | - | - | - |
| 1777461620 | 12.22° C | 84% | 1012.8 hPa | 0 mm | - | - | - |
| 1777459822 | 11.67° C | 84% | 1012.8 hPa | 0 mm | - | - | - |
| 1777457434 | 11.67° C | 84% | 1013 hPa | 0 mm | - | - | - |
| 1777443019 | 13.89° C | 74% | 1012.4 hPa | 0 mm | - | - | - |
| 1777442431 | 13.89° C | 74% | 1012.4 hPa | 0 mm | - | - | - |
| 1777438823 | 13.89° C | 70% | 1012.6 hPa | 0 mm | - | - | - |
| 1777434625 | 13.89° C | 68% | 1012.3 hPa | 0 mm | - | - | - |
| 1777430424 | 14.44° C | 66% | 1012.6 hPa | 0 mm | - | - | - |
| 1777429221 | 14.44° C | 67% | 1012.6 hPa | 0 mm | - | - | - |
| 1777425021 | 14.44° C | 69% | 1012.9 hPa | 0 mm | - | - | - |
| 1777419621 | 13.89° C | 74% | 1012.5 hPa | 0 mm | - | - | - |
| 1777416022 | 15° C | 72% | 1013 hPa | 0 mm | - | - | - |
| 1777411220 | 17.78° C | 54% | 1013.4 hPa | 0 mm | - | - | - |
* Rain latest hour (hover to see other rain measurements)
** Current wind speed in m/s (hover to see current wind gust speed)